createdAt,value
2022-08-17T00:00:34.561Z,4.75
2022-08-17T00:03:26.154Z,5.05
2022-08-17T00:06:12.134Z,5.45
2022-08-17T00:08:40.779Z,5.03
2022-08-17T00:11:11.161Z,4.40
2022-08-17T00:13:46.533Z,5.32
2022-08-17T00:16:53.464Z,5.18
2022-08-17T00:19:22.902Z,4.75
2022-08-17T00:22:33.948Z,5.47
2022-08-17T00:24:42.051Z,5.20
2022-08-17T00:27:09.301Z,4.82
2022-08-17T00:29:38.728Z,5.05
2022-08-17T00:33:15.777Z,4.63
2022-08-17T00:35:00.058Z,4.90
2022-08-17T00:37:27.671Z,5.43
2022-08-17T00:39:57.942Z,5.15
2022-08-17T00:42:30.914Z,4.80
2022-08-17T00:44:59.490Z,4.85
2022-08-17T00:47:28.994Z,5.03
2022-08-17T00:49:56.740Z,5.68
2022-08-17T00:52:35.048Z,5.38
2022-08-17T00:55:05.142Z,5.10
2022-08-17T00:57:44.600Z,5.05
2022-08-17T01:00:26.849Z,5.22
2022-08-17T01:03:19.477Z,5.13
2022-08-17T01:05:51.268Z,4.95
2022-08-17T01:08:24.638Z,5.18
2022-08-17T01:13:40.159Z,4.80
2022-08-17T01:16:17.205Z,4.90
2022-08-17T01:18:47.077Z,4.68
2022-08-17T01:21:38.277Z,5.47
2022-08-17T01:24:06.625Z,5.43
2022-08-17T01:26:36.059Z,5.25
2022-08-17T01:29:05.880Z,5.38
2022-08-17T01:31:38.267Z,5.13
2022-08-17T01:34:10.384Z,5.82
2022-08-17T01:36:42.165Z,5.15
2022-08-17T01:39:17.226Z,5.15
2022-08-17T01:41:47.525Z,5.45
2022-08-17T01:44:17.104Z,5.38
2022-08-17T01:46:46.966Z,5.50
2022-08-17T01:49:14.626Z,5.10
2022-08-17T01:51:44.590Z,5.25
2022-08-17T01:54:15.359Z,6.10
2022-08-17T01:56:48.722Z,5.68
2022-08-17T02:01:44.868Z,5.40
2022-08-17T02:04:13.425Z,5.22
2022-08-17T02:06:44.986Z,5.60
2022-08-17T02:09:25.574Z,5.53
2022-08-17T02:11:59.128Z,5.88
2022-08-17T02:14:27.318Z,5.32
2022-08-17T02:16:57.642Z,5.30
2022-08-17T02:19:25.474Z,5.47
2022-08-17T02:21:54.112Z,6.18
2022-08-17T02:25:01.151Z,5.63
2022-08-17T02:27:13.928Z,5.70
2022-08-17T02:29:43.945Z,5.93
2022-08-17T02:32:27.317Z,6.00
2022-08-17T02:34:56.140Z,5.22
2022-08-17T02:37:26.478Z,6.18
2022-08-17T02:39:56.961Z,5.18
2022-08-17T02:42:35.144Z,5.88
2022-08-17T02:45:04.805Z,6.18
2022-08-17T02:47:35.208Z,5.28
2022-08-17T02:50:05.995Z,5.38
2022-08-17T02:52:43.079Z,5.82
2022-08-17T02:55:16.340Z,6.18
2022-08-17T02:57:44.175Z,6.65
2022-08-17T03:00:16.136Z,7.00
2022-08-17T03:02:49.429Z,5.90
2022-08-17T03:07:49.114Z,7.05
2022-08-17T03:10:17.890Z,6.97
2022-08-17T03:12:48.864Z,6.70
2022-08-17T03:15:19.974Z,6.68
2022-08-17T03:17:50.238Z,6.43
2022-08-17T03:20:20.664Z,6.93
2022-08-17T03:22:54.677Z,6.78
2022-08-17T03:25:37.140Z,6.28
2022-08-17T03:28:07.883Z,7.15
2022-08-17T03:30:36.142Z,6.63
2022-08-17T03:33:06.165Z,6.78
2022-08-17T03:35:37.658Z,6.43
2022-08-17T03:38:06.297Z,6.82
2022-08-17T03:40:57.192Z,6.72
2022-08-17T03:43:32.355Z,6.82
2022-08-17T03:46:28.369Z,6.75
2022-08-17T03:49:38.689Z,6.50
2022-08-17T03:52:35.357Z,6.93
2022-08-17T03:55:21.315Z,6.90
2022-08-17T03:58:05.948Z,6.43
2022-08-17T04:00:39.718Z,5.63
2022-08-17T04:03:07.170Z,6.18
2022-08-17T04:05:36.797Z,6.10
2022-08-17T04:08:07.725Z,6.30
2022-08-17T04:10:38.372Z,6.57
2022-08-17T04:13:13.483Z,6.68
2022-08-17T04:15:43.481Z,7.07
2022-08-17T04:18:11.079Z,7.20
2022-08-17T04:20:38.658Z,6.68
2022-08-17T04:23:11.349Z,8.45
2022-08-17T04:25:42.794Z,7.78
2022-08-17T04:28:16.400Z,7.85
2022-08-17T04:30:46.485Z,7.68
2022-08-17T04:33:20.309Z,8.10
2022-08-17T04:35:51.216Z,7.93
2022-08-17T04:38:21.976Z,7.70
2022-08-17T04:41:07.952Z,7.65
2022-08-17T04:43:40.115Z,7.72
2022-08-17T04:46:14.616Z,7.43
2022-08-17T04:48:53.254Z,7.60
2022-08-17T04:51:56.263Z,8.32
2022-08-17T04:54:27.676Z,7.07
2022-08-17T04:56:54.956Z,7.35
2022-08-17T04:59:22.468Z,7.70
2022-08-17T05:01:54.943Z,7.40
2022-08-17T05:04:34.780Z,7.90
2022-08-17T05:07:04.579Z,7.60
2022-08-17T05:09:32.278Z,6.93
2022-08-17T05:12:03.021Z,7.18
2022-08-17T05:14:33.985Z,7.43
2022-08-17T05:17:07.278Z,7.57
2022-08-17T05:19:41.141Z,7.68
2022-08-17T05:22:08.506Z,7.80
2022-08-17T05:24:38.977Z,7.40
2022-08-17T05:27:18.871Z,7.90
2022-08-17T05:29:49.083Z,8.63
2022-08-17T05:32:37.868Z,7.90
2022-08-17T05:35:09.825Z,7.55
2022-08-17T05:40:07.435Z,7.88
2022-08-17T05:42:34.891Z,7.40
2022-08-17T05:45:02.269Z,8.13
2022-08-17T05:47:31.083Z,7.35
2022-08-17T05:50:01.321Z,8.18
2022-08-17T05:53:04.253Z,8.18
2022-08-17T05:56:01.290Z,7.80
2022-08-17T05:58:57.251Z,8.02
2022-08-17T06:01:47.987Z,8.57
2022-08-17T06:04:39.753Z,8.85
2022-08-17T06:07:22.209Z,8.73
2022-08-17T06:10:03.283Z,9.13
2022-08-17T06:12:52.870Z,8.63
2022-08-17T06:15:29.247Z,8.65
2022-08-17T06:18:02.011Z,8.95
2022-08-17T06:20:41.297Z,8.95
2022-08-17T06:23:14.376Z,9.32
2022-08-17T06:25:47.881Z,8.45
2022-08-17T06:28:41.143Z,8.70
2022-08-17T06:31:16.934Z,9.20
2022-08-17T06:33:49.061Z,8.73
2022-08-17T06:36:44.240Z,8.57
2022-08-17T06:39:34.613Z,9.10
2022-08-17T16:45:54.367Z,10.60
2022-08-17T16:48:24.225Z,9.95
2022-08-17T16:50:58.603Z,8.57
2022-08-17T16:53:34.581Z,9.65
2022-08-17T16:56:07.229Z,9.35
2022-08-17T16:58:39.399Z,8.55
2022-08-17T17:01:08.737Z,9.05
2022-08-17T17:03:39.148Z,8.77
2022-08-17T17:06:17.106Z,8.70
2022-08-17T17:08:52.096Z,9.05
2022-08-17T17:13:59.566Z,9.15
2022-08-17T17:16:51.788Z,9.38
2022-08-17T17:19:38.083Z,9.85
2022-08-17T17:23:00.832Z,9.10
2022-08-17T17:25:34.176Z,8.90
2022-08-17T17:31:11.189Z,8.57
2022-08-17T17:33:49.790Z,8.32
2022-08-17T17:36:52.431Z,7.72
2022-08-17T17:39:44.221Z,8.30
2022-08-17T17:42:16.705Z,8.02
2022-08-17T17:44:58.901Z,7.57
2022-08-17T17:47:28.700Z,8.43
2022-08-17T17:49:56.120Z,8.27
2022-08-17T17:52:47.593Z,8.60
2022-08-17T17:55:32.956Z,9.20
2022-08-17T17:58:16.649Z,8.23
2022-08-17T18:01:14.326Z,9.15
2022-08-17T18:04:28.778Z,9.35
2022-08-17T18:09:51.677Z,9.38
2022-08-17T18:12:44.744Z,10.18
2022-08-17T18:15:27.459Z,10.13
2022-08-17T18:18:25.119Z,11.67
2022-08-17T18:21:00.672Z,10.80
2022-08-17T18:23:30.764Z,11.18
2022-08-17T18:26:01.841Z,11.55
2022-08-17T18:28:43.971Z,12.52
2022-08-17T18:31:21.738Z,11.60
2022-08-17T18:33:52.391Z,11.30
2022-08-17T18:36:29.712Z,11.40
2022-08-17T18:39:27.395Z,12.77
2022-08-17T18:41:59.130Z,11.65
2022-08-17T18:44:38.041Z,12.25
2022-08-17T18:47:16.625Z,11.55
2022-08-17T18:49:47.743Z,12.35
2022-08-17T18:52:29.604Z,11.75
2022-08-17T18:55:13.704Z,12.70
2022-08-17T18:57:53.854Z,12.38
2022-08-17T19:00:30.098Z,11.77
2022-08-17T19:03:19.985Z,11.43
2022-08-17T19:05:53.224Z,11.35
2022-08-17T19:08:40.692Z,11.10
2022-08-17T19:11:16.378Z,12.00
2022-08-17T19:14:02.119Z,11.50
2022-08-17T19:16:41.196Z,12.55
2022-08-17T19:19:16.119Z,11.55
2022-08-17T19:21:57.715Z,11.75
2022-08-17T19:24:31.779Z,11.60
2022-08-17T19:27:18.066Z,11.80
2022-08-17T19:30:03.893Z,12.43
2022-08-17T19:32:35.740Z,11.85
2022-08-17T19:35:06.469Z,11.65
2022-08-17T19:38:03.401Z,11.95
2022-08-17T19:40:56.211Z,12.68
2022-08-17T19:44:02.542Z,11.82
2022-08-17T19:46:56.260Z,11.30
2022-08-17T19:49:52.379Z,11.18
2022-08-17T19:52:39.479Z,12.48
2022-08-17T19:55:25.811Z,11.63
2022-08-17T19:58:24.623Z,11.70
2022-08-17T20:00:54.724Z,11.93
2022-08-17T20:03:32.393Z,12.18
2022-08-17T20:06:13.166Z,12.15
2022-08-17T20:08:59.009Z,11.07
2022-08-17T20:11:45.429Z,10.95
2022-08-17T20:14:23.920Z,11.07
2022-08-17T20:16:55.159Z,11.07
2022-08-17T20:22:19.921Z,10.30
2022-08-17T20:25:14.104Z,11.27
2022-08-17T20:28:19.701Z,10.93
2022-08-17T20:30:50.771Z,11.23
2022-08-17T20:33:37.079Z,11.25
2022-08-17T20:36:20.433Z,10.75
2022-08-17T20:38:55.058Z,10.30
2022-08-17T20:41:28.817Z,11.48
2022-08-17T20:43:59.589Z,10.95
2022-08-17T20:46:51.381Z,11.77
2022-08-17T20:49:34.247Z,10.95
2022-08-17T20:52:16.618Z,11.10
2022-08-17T20:54:48.511Z,10.23
2022-08-17T20:57:34.710Z,10.88
2022-08-17T21:00:15.364Z,10.23
2022-08-17T21:02:49.555Z,11.23
2022-08-17T21:05:34.585Z,11.50
2022-08-17T21:08:15.643Z,13.68
2022-08-17T21:10:45.458Z,13.32
2022-08-17T21:13:13.386Z,14.00
2022-08-17T21:15:54.765Z,12.02
2022-08-17T21:18:57.785Z,11.65
2022-08-17T21:21:54.411Z,11.32
2022-08-17T21:24:41.265Z,11.02
2022-08-17T21:27:43.129Z,13.77
2022-08-17T21:30:15.266Z,11.90
2022-08-17T21:32:45.029Z,12.10
2022-08-17T21:35:28.497Z,11.35
2022-08-17T21:38:02.465Z,12.48
2022-08-17T21:40:32.985Z,11.95
2022-08-17T21:43:16.852Z,12.02
2022-08-17T21:45:55.839Z,12.27
2022-08-17T21:48:28.722Z,12.02
2022-08-17T21:51:10.297Z,11.90
2022-08-17T21:53:50.885Z,11.55
2022-08-17T21:56:36.435Z,11.93
2022-08-17T21:59:25.747Z,12.13
2022-08-17T22:02:06.494Z,10.95
2022-08-17T22:04:40.464Z,11.07
2022-08-17T22:07:12.809Z,12.15
2022-08-17T22:09:48.830Z,12.05
2022-08-17T22:12:16.041Z,12.80
2022-08-17T22:14:57.123Z,12.65
2022-08-17T22:17:27.676Z,13.35
2022-08-17T22:20:01.446Z,13.63
2022-08-17T22:23:09.489Z,14.10
2022-08-17T22:25:42.374Z,13.30
2022-08-17T22:28:12.279Z,13.25
2022-08-17T22:30:58.101Z,13.02
2022-08-17T22:33:45.992Z,13.65
2022-08-17T22:36:36.185Z,13.70
2022-08-17T22:39:26.395Z,13.10
2022-08-17T22:41:59.376Z,13.27
2022-08-17T22:44:37.532Z,14.05
2022-08-17T22:47:24.057Z,14.35
2022-08-17T22:49:58.190Z,14.43
2022-08-17T22:52:35.922Z,15.15
2022-08-17T22:55:35.048Z,14.60
2022-08-17T22:58:27.973Z,12.48
2022-08-17T23:01:15.181Z,13.02
2022-08-17T23:03:59.392Z,13.43
2022-08-17T23:06:27.275Z,13.88
2022-08-17T23:08:56.620Z,15.07
2022-08-17T23:11:42.831Z,16.00
2022-08-17T23:14:15.784Z,15.90
2022-08-17T23:16:43.551Z,15.77
2022-08-17T23:19:15.655Z,13.75
2022-08-17T23:21:44.881Z,13.60
2022-08-17T23:24:22.335Z,14.88
2022-08-17T23:26:49.753Z,15.55
2022-08-17T23:29:17.078Z,13.93
2022-08-17T23:31:44.367Z,15.02
2022-08-17T23:34:18.970Z,14.45
2022-08-17T23:36:52.431Z,14.00
2022-08-17T23:39:27.535Z,15.27
2022-08-17T23:42:00.367Z,14.63
2022-08-17T23:44:28.855Z,15.18
2022-08-17T23:46:56.709Z,15.77
2022-08-17T23:49:25.102Z,13.63
2022-08-17T23:51:56.976Z,13.18
2022-08-17T23:54:33.607Z,14.27
2022-08-17T23:57:09.160Z,14.82
2022-08-17T23:59:40.068Z,14.07
